Orbital elements of FENGYUN 1C DEB
| Launched | 9 May 1999 |
| Flight ended | – |
| Launch site | Taiyuan Space Center, PRC |
| Owner | People's Republic of China |
| NORAD ID | 47042 |
| Date fetched |
Epoch osculation |
Inc. [°] |
Ecc. | RA asc node [hr] |
Arg Peri. [°] |
Mean anom [°] |
Mean motion [rev/day] |
Abs. mag |
| Date fetched |
Epoch osculation |
Inc. [°] |
Ecc. | RA asc node [hr] |
Arg Peri. [°] |
Mean anom [°] |
Mean motion [rev/day] |
Abs. mag |
| 2026 May 03 17:57 | 2026 Apr 30 11:37:31 | 98.9921 | 0.00547 | 1.7307 | 357.1037 | 180.9399 | 14.23012 | – |
| 2026 May 02 17:57 | 2026 Apr 30 11:37:31 | 98.9921 | 0.00547 | 1.7307 | 357.1037 | 180.9399 | 14.23012 | – |
| 2026 May 01 17:56 | 2026 Apr 30 11:37:31 | 98.9921 | 0.00547 | 1.7307 | 357.1037 | 180.9399 | 14.23012 | – |
| 2026 Apr 30 17:56 | 2026 Apr 30 11:37:31 | 98.9921 | 0.00547 | 1.7307 | 357.1037 | 180.9399 | 14.23012 | – |
| 2026 Apr 29 17:57 | 2026 Apr 22 00:21:44 | 98.9925 | 0.00551 | 1.1543 | 21.1679 | 180.9399 | 14.23012 | – |
| 2026 Apr 28 17:56 | 2026 Apr 22 00:21:44 | 98.9925 | 0.00551 | 1.1543 | 21.1679 | 180.9399 | 14.23012 | – |
| 2026 Apr 27 17:58 | 2026 Apr 22 00:21:44 | 98.9925 | 0.00551 | 1.1543 | 21.1679 | 180.9399 | 14.23012 | – |
| 2026 Apr 26 17:58 | 2026 Apr 22 00:21:44 | 98.9925 | 0.00551 | 1.1543 | 21.1679 | 180.9399 | 14.23012 | – |
| 2026 Apr 25 17:58 | 2026 Apr 22 00:21:44 | 98.9925 | 0.00551 | 1.1543 | 21.1679 | 180.9399 | 14.23012 | – |
| 2026 Apr 24 17:59 | 2026 Apr 22 00:21:44 | 98.9925 | 0.00551 | 1.1543 | 21.1679 | 180.9399 | 14.23012 | – |
| 2026 Apr 23 17:57 | 2026 Apr 17 12:52:15 | 98.9929 | 0.00553 | 0.8495 | 33.8065 | 180.9399 | 14.23012 | – |
| 2026 Apr 22 17:57 | 2026 Apr 17 12:52:15 | 98.9929 | 0.00553 | 0.8495 | 33.8065 | 180.9399 | 14.23012 | – |
| 2026 Apr 21 17:57 | 2026 Apr 17 12:52:15 | 98.9929 | 0.00553 | 0.8495 | 33.8065 | 180.9399 | 14.23012 | – |
| 2026 Apr 20 17:57 | 2026 Apr 17 12:52:15 | 98.9929 | 0.00553 | 0.8495 | 33.8065 | 180.9399 | 14.23012 | – |
| 2026 Apr 19 17:58 | 2026 Apr 17 12:52:15 | 98.9929 | 0.00553 | 0.8495 | 33.8065 | 180.9399 | 14.23012 | – |
| 2026 Apr 18 17:56 | 2026 Apr 13 00:21:45 | 98.9938 | 0.00553 | 0.5418 | 46.4513 | 180.9399 | 14.23012 | – |
| 2026 Apr 16 17:57 | 2026 Apr 13 00:21:45 | 98.9938 | 0.00553 | 0.5418 | 46.4513 | 180.9399 | 14.23012 | – |
| 2026 Apr 14 17:57 | 2026 Apr 13 00:21:45 | 98.9938 | 0.00553 | 0.5418 | 46.4513 | 180.9399 | 14.23012 | – |
| 2026 Apr 13 17:57 | 2026 Apr 13 00:21:45 | 98.9938 | 0.00553 | 0.5418 | 46.4513 | 180.9399 | 14.23012 | – |
| 2026 Apr 12 17:57 | 2026 Apr 03 13:02:47 | 98.9943 | 0.00555 | 23.8970 | 73.2146 | 180.9399 | 14.23012 | – |
| 2026 Apr 11 17:57 | 2026 Apr 03 13:02:47 | 98.9943 | 0.00555 | 23.8970 | 73.2146 | 180.9399 | 14.23012 | – |
| 2026 Apr 10 17:58 | 2026 Apr 03 13:02:47 | 98.9943 | 0.00555 | 23.8970 | 73.2146 | 180.9399 | 14.23012 | – |
| 2026 Apr 09 18:01 | 2026 Apr 03 13:02:47 | 98.9943 | 0.00555 | 23.8970 | 73.2146 | 180.9399 | 14.23012 | – |
| 2026 Apr 08 17:57 | 2026 Apr 03 13:02:47 | 98.9943 | 0.00555 | 23.8970 | 73.2146 | 180.9399 | 14.23012 | – |
| 2026 Apr 07 17:57 | 2026 Apr 01 12:21:34 | 98.9943 | 0.00555 | 23.7589 | 78.9250 | 180.9399 | 14.23012 | – |
| 2026 Apr 06 17:57 | 2026 Apr 01 12:21:34 | 98.9943 | 0.00555 | 23.7589 | 78.9250 | 180.9399 | 14.23012 | – |